Time;durP1;ratioP1;P1;durP2;ratioP2;P2;SDS_P1;SDS_P2;PMS_P1;PMS_P2;Temp;Humidity;BMP_temperature;BMP_pressure;BME280_temperature;BME280_humidity;BME280_pressure;Samples;Min_cycle;Max_cycle;Signal;HPM_P1;HPM_P2
2021/07/12 00:02:07;;;;;;;9.07;8.17;;;19.10;99.90;;;;;;4994072;28;20296;-56
2021/07/12 00:04:34;;;;;;;10.47;9.07;;;19.20;99.90;;;;;;4994583;28;20226;-56
2021/07/12 00:07:01;;;;;;;9.50;8.37;;;19.20;99.90;;;;;;4994469;28;20554;-56
2021/07/12 00:09:28;;;;;;;10.97;8.80;;;19.20;99.90;;;;;;4997023;28;20594;-56
2021/07/12 00:11:55;;;;;;;9.60;8.60;;;19.10;99.90;;;;;;4994353;28;20266;-56
2021/07/12 00:14:21;;;;;;;10.20;8.60;;;19.10;99.90;;;;;;4995222;28;20303;-56
2021/07/12 00:16:48;;;;;;;10.67;9.23;;;19.10;99.90;;;;;;4995348;28;20239;-56
2021/07/12 00:19:15;;;;;;;11.70;9.40;;;19.00;99.90;;;;;;4992970;28;20789;-56
2021/07/12 00:21:43;;;;;;;14.23;9.27;;;19.10;99.90;;;;;;4994128;28;20201;-56
2021/07/12 00:24:10;;;;;;;10.70;9.47;;;19.00;99.90;;;;;;4996173;28;21658;-56
2021/07/12 00:26:37;;;;;;;10.27;9.23;;;19.00;99.90;;;;;;4993438;28;20301;-56
2021/07/12 00:29:03;;;;;;;12.27;9.47;;;19.00;99.90;;;;;;4993255;28;20211;-56
2021/07/12 00:31:30;;;;;;;10.13;8.97;;;18.90;99.90;;;;;;4995582;28;20227;-56
2021/07/12 00:33:58;;;;;;;11.60;9.73;;;18.90;99.90;;;;;;4994192;28;20208;-56
2021/07/12 00:36:24;;;;;;;10.43;9.07;;;18.90;99.90;;;;;;4991433;28;20623;-56
2021/07/12 00:38:51;;;;;;;12.67;9.90;;;18.90;99.90;;;;;;4994324;28;20737;-56
2021/07/12 00:41:18;;;;;;;13.40;10.27;;;18.80;99.90;;;;;;4992293;28;20198;-56
2021/07/12 00:43:45;;;;;;;12.13;10.47;;;18.80;99.90;;;;;;4996383;28;20354;-57
2021/07/12 00:46:12;;;;;;;12.23;9.83;;;18.80;99.90;;;;;;4994188;28;20655;-56
2021/07/12 00:48:39;;;;;;;10.63;9.57;;;18.90;99.90;;;;;;4996728;28;20265;-57
2021/07/12 00:51:06;;;;;;;11.80;9.97;;;18.90;99.90;;;;;;4995303;28;20213;-56
2021/07/12 00:53:33;;;;;;;11.87;10.40;;;18.90;99.90;;;;;;4995674;28;20291;-55
2021/07/12 00:56:00;;;;;;;12.57;10.00;;;18.80;99.90;;;;;;4993671;28;20286;-55
2021/07/12 00:58:27;;;;;;;10.20;9.20;;;18.90;99.90;;;;;;4994963;28;20235;-57
2021/07/12 01:00:57;;;;;;;11.80;10.33;;;18.80;99.90;;;;;;4991338;28;20255;-55
2021/07/12 01:03:26;;;;;;;10.80;9.70;;;18.80;99.90;;;;;;4995600;28;20223;-55
2021/07/12 01:05:53;;;;;;;12.77;9.60;;;18.80;99.90;;;;;;4995536;28;20232;-55
2021/07/12 01:08:21;;;;;;;13.83;9.93;;;18.80;99.90;;;;;;4993443;28;20573;-57
2021/07/12 01:11:13;;;;;;;10.30;9.27;;;18.80;99.90;;;;;;4992588;28;20571;-55
2021/07/12 01:13:56;;;;;;;20.37;10.50;;;18.80;99.90;;;;;;4995368;28;20214;-57
2021/07/12 01:16:33;;;;;;;12.57;9.70;;;18.70;99.90;;;;;;4994668;28;20670;-57
2021/07/12 01:19:27;;;;;;;10.50;9.40;;;18.70;99.90;;;;;;4997580;28;20621;-58
2021/07/12 01:22:32;;;;;;;11.23;9.40;;;18.70;99.90;;;;;;4993944;28;20459;-58
2021/07/12 01:25:33;;;;;;;10.80;9.70;;;18.70;99.90;;;;;;4993832;28;20679;-57
2021/07/12 01:28:52;;;;;;;10.83;9.73;;;18.70;99.90;;;;;;4995759;28;20785;-57
2021/07/12 01:31:38;;;;;;;10.73;9.50;;;18.70;99.90;;;;;;4992195;28;20290;-57
2021/07/12 01:34:11;;;;;;;11.50;10.27;;;18.60;99.90;;;;;;4996204;28;20275;-57
2021/07/12 01:36:56;;;;;;;12.73;10.47;;;18.60;99.90;;;;;;4995204;28;20208;-57
2021/07/12 01:39:32;;;;;;;11.63;10.27;;;18.60;99.90;;;;;;4994865;28;20919;-57
2021/07/12 01:42:06;;;;;;;12.50;10.87;;;18.60;99.90;;;;;;4993041;28;20227;-58
2021/07/12 01:44:54;;;;;;;10.87;9.77;;;18.60;99.90;;;;;;4994543;28;20338;-58
2021/07/12 01:47:27;;;;;;;10.53;9.43;;;18.60;99.90;;;;;;4991921;28;20300;-58
2021/07/12 01:50:27;;;;;;;12.07;10.33;;;18.50;99.90;;;;;;4995920;28;20716;-58
2021/07/12 01:53:33;;;;;;;13.63;9.50;;;18.50;99.90;;;;;;4992553;28;20297;-57
2021/07/12 01:56:13;;;;;;;12.70;10.60;;;18.50;99.90;;;;;;4990334;28;20298;-58
2021/07/12 01:59:04;;;;;;;10.83;9.70;;;18.50;99.90;;;;;;4993967;28;20368;-57
2021/07/12 02:01:34;;;;;;;11.23;10.03;;;18.40;99.90;;;;;;4991313;28;20341;-57
2021/07/12 02:04:03;;;;;;;17.87;10.87;;;18.40;99.90;;;;;;4993532;28;20201;-58
2021/07/12 02:06:37;;;;;;;11.00;9.90;;;18.40;99.90;;;;;;4998039;28;20563;-55
2021/07/12 02:09:07;;;;;;;11.83;10.63;;;18.50;99.90;;;;;;4992565;28;20671;-56
2021/07/12 02:11:37;;;;;;;11.63;9.37;;;18.40;99.90;;;;;;4992684;28;20612;-55
2021/07/12 02:14:06;;;;;;;12.90;11.30;;;18.30;99.90;;;;;;4994919;28;20699;-55
2021/07/12 02:16:35;;;;;;;12.43;10.43;;;18.40;99.90;;;;;;4996449;28;20299;-55
2021/07/12 02:19:04;;;;;;;10.87;9.77;;;18.30;99.90;;;;;;4995094;28;20572;-55
2021/07/12 02:21:33;;;;;;;11.87;10.07;;;18.40;99.90;;;;;;4995213;28;20204;-56
2021/07/12 02:24:02;;;;;;;12.53;11.10;;;18.30;99.90;;;;;;4996262;28;20210;-56
2021/07/12 02:26:30;;;;;;;12.33;10.17;;;18.30;99.90;;;;;;4991694;28;20241;-55
2021/07/12 02:29:02;;;;;;;12.50;10.27;;;18.20;99.90;;;;;;4974101;28;20364;-56
2021/07/12 02:31:31;;;;;;;11.50;10.23;;;18.20;99.90;;;;;;4992396;28;20672;-55
2021/07/12 02:34:00;;;;;;;11.57;10.37;;;18.20;99.90;;;;;;4994654;28;20209;-55
2021/07/12 02:36:28;;;;;;;13.03;10.27;;;18.20;99.90;;;;;;4993935;28;20862;-56
2021/07/12 02:38:56;;;;;;;13.07;11.10;;;18.30;99.90;;;;;;4991117;28;20228;-55
2021/07/12 02:41:25;;;;;;;13.93;10.67;;;18.30;99.90;;;;;;4992863;28;20211;-55
2021/07/12 02:43:54;;;;;;;11.87;9.97;;;18.30;99.90;;;;;;4992662;28;20198;-56
2021/07/12 02:46:24;;;;;;;11.93;10.70;;;18.20;99.90;;;;;;4994702;28;20297;-55
2021/07/12 02:48:51;;;;;;;13.20;11.13;;;18.20;99.90;;;;;;4993612;28;20625;-56
2021/07/12 02:51:26;;;;;;;12.73;10.43;;;18.20;99.90;;;;;;4995751;28;20834;-55
2021/07/12 02:54:01;;;;;;;12.37;11.03;;;18.20;99.90;;;;;;4993478;28;20208;-55
2021/07/12 02:56:28;;;;;;;15.23;11.77;;;18.30;99.90;;;;;;4991906;28;20292;-56
2021/07/12 02:58:55;;;;;;;15.73;10.77;;;18.30;99.90;;;;;;4992634;28;20250;-55
2021/07/12 03:01:22;;;;;;;14.40;10.97;;;18.20;99.90;;;;;;4996096;28;20297;-56
2021/07/12 03:03:49;;;;;;;14.20;11.80;;;18.10;99.90;;;;;;4995291;28;20646;-55
2021/07/12 03:06:19;;;;;;;14.47;11.50;;;18.20;99.90;;;;;;4991564;28;20270;-58
2021/07/12 03:08:58;;;;;;;13.03;11.47;;;18.20;99.90;;;;;;4993212;28;20301;-58
2021/07/12 03:11:32;;;;;;;12.50;10.90;;;18.10;99.90;;;;;;4992311;28;20587;-57
2021/07/12 03:14:38;;;;;;;13.23;11.47;;;18.10;99.90;;;;;;4993457;28;20280;-57
2021/07/12 03:17:07;;;;;;;16.00;11.90;;;18.10;99.90;;;;;;4992572;28;20211;-58
2021/07/12 03:19:38;;;;;;;15.83;12.17;;;18.20;99.90;;;;;;4994827;28;20592;-57
2021/07/12 03:22:09;;;;;;;14.00;11.87;;;18.10;99.90;;;;;;4991160;28;20299;-57
2021/07/12 03:24:38;;;;;;;13.63;11.50;;;18.10;99.90;;;;;;4993872;28;20241;-57
2021/07/12 03:27:09;;;;;;;17.33;12.50;;;18.10;99.90;;;;;;4993765;28;20197;-58
2021/07/12 03:29:38;;;;;;;13.90;12.33;;;18.10;99.90;;;;;;4995411;28;20236;-57
2021/07/12 03:32:08;;;;;;;17.13;12.63;;;18.10;99.90;;;;;;4993475;28;20304;-58
2021/07/12 03:34:36;;;;;;;13.63;12.03;;;18.10;99.90;;;;;;4996376;28;20302;-57
2021/07/12 03:37:04;;;;;;;14.17;12.67;;;18.10;99.90;;;;;;4992117;28;20223;-57
2021/07/12 03:39:32;;;;;;;16.53;12.30;;;18.00;99.90;;;;;;4996613;28;20217;-57
2021/07/12 03:41:59;;;;;;;14.77;12.13;;;18.10;99.90;;;;;;4990101;28;20388;-58
2021/07/12 03:44:26;;;;;;;17.00;12.73;;;18.10;99.90;;;;;;4994457;28;20303;-57
2021/07/12 03:46:53;;;;;;;16.00;12.87;;;18.00;99.90;;;;;;4991932;28;20248;-57
2021/07/12 03:49:20;;;;;;;14.77;12.93;;;18.00;99.90;;;;;;4993875;28;20242;-57
2021/07/12 03:51:49;;;;;;;17.60;12.47;;;18.00;99.90;;;;;;4991073;28;20743;-57
2021/07/12 03:54:17;;;;;;;14.77;12.47;;;17.90;99.90;;;;;;4993649;28;20248;-58
2021/07/12 03:56:44;;;;;;;14.17;12.27;;;17.90;99.90;;;;;;4990349;28;20306;-57
2021/07/12 03:59:11;;;;;;;15.37;12.90;;;17.90;99.90;;;;;;4994704;28;20329;-58
2021/07/12 04:01:38;;;;;;;13.27;11.87;;;17.90;99.90;;;;;;4993039;28;20328;-57
2021/07/12 04:04:05;;;;;;;15.23;12.63;;;17.90;99.90;;;;;;4991111;28;20232;-58
2021/07/12 04:06:32;;;;;;;15.43;13.23;;;18.00;99.90;;;;;;4995217;28;20281;-58
2021/07/12 04:08:59;;;;;;;15.93;12.57;;;18.00;99.90;;;;;;4993238;28;20203;-57
2021/07/12 04:11:36;;;;;;;16.47;12.47;;;17.90;99.90;;;;;;4994174;28;20202;-58
2021/07/12 04:14:04;;;;;;;16.73;12.87;;;18.00;99.90;;;;;;4993854;28;20212;-58
2021/07/12 04:16:31;;;;;;;18.90;13.67;;;17.90;99.90;;;;;;4997010;28;20213;-56
2021/07/12 04:18:58;;;;;;;14.97;12.80;;;17.90;99.90;;;;;;5000030;28;20233;-57
2021/07/12 04:21:24;;;;;;;15.00;13.10;;;18.00;99.90;;;;;;4999217;28;20620;-56
2021/07/12 04:23:52;;;;;;;15.90;13.60;;;18.00;99.90;;;;;;4997093;28;20209;-56
2021/07/12 04:26:19;;;;;;;14.67;12.97;;;18.00;99.90;;;;;;4993742;28;20199;-57
2021/07/12 04:28:45;;;;;;;15.87;13.53;;;18.00;99.90;;;;;;4996128;28;20626;-56
2021/07/12 04:31:14;;;;;;;16.27;13.13;;;18.10;99.90;;;;;;4992565;28;20549;-56
2021/07/12 04:33:41;;;;;;;17.97;13.63;;;18.10;99.90;;;;;;4994199;28;20232;-56
2021/07/12 04:36:10;;;;;;;19.03;14.53;;;18.10;99.90;;;;;;4993935;28;20702;-57
2021/07/12 04:38:38;;;;;;;19.17;13.47;;;18.10;99.90;;;;;;4997634;28;20281;-57
2021/07/12 04:41:05;;;;;;;16.73;14.47;;;18.20;99.90;;;;;;4992133;28;20635;-57
2021/07/12 04:43:32;;;;;;;18.93;14.57;;;18.20;99.90;;;;;;4997170;28;20580;-57
2021/07/12 04:45:59;;;;;;;15.47;13.67;;;18.20;99.90;;;;;;4992692;28;20236;-56
2021/07/12 04:48:26;;;;;;;16.33;13.53;;;18.20;99.90;;;;;;4994869;28;20208;-56
2021/07/12 04:50:53;;;;;;;15.73;13.23;;;18.30;99.90;;;;;;4992817;28;20229;-56
2021/07/12 04:53:19;;;;;;;17.87;13.73;;;18.30;99.90;;;;;;4994740;28;20690;-56
2021/07/12 04:55:46;;;;;;;17.23;14.73;;;18.30;99.90;;;;;;4991315;28;20211;-56
2021/07/12 04:58:13;;;;;;;20.10;13.73;;;18.30;99.90;;;;;;4993479;28;20718;-56
2021/07/12 05:00:40;;;;;;;17.13;14.80;;;18.30;99.90;;;;;;4994866;28;20302;-56
2021/07/12 05:03:07;;;;;;;19.40;15.27;;;18.30;99.90;;;;;;4994414;28;20215;-57
2021/07/12 05:05:34;;;;;;;17.13;14.37;;;18.30;99.90;;;;;;4992468;28;20295;-57
2021/07/12 05:08:01;;;;;;;19.63;15.73;;;18.30;99.90;;;;;;4992471;28;20260;-57
2021/07/12 05:10:28;;;;;;;17.30;15.03;;;18.30;99.90;;;;;;4995097;28;20212;-57
2021/07/12 05:12:55;;;;;;;16.53;14.73;;;18.30;99.90;;;;;;4997922;28;20353;-56
2021/07/12 05:15:22;;;;;;;15.67;14.07;;;18.30;99.90;;;;;;4994557;28;20208;-56
2021/07/12 05:17:49;;;;;;;19.47;14.83;;;18.30;99.90;;;;;;4993699;28;20308;-57
2021/07/12 05:20:15;;;;;;;18.30;14.77;;;18.40;99.90;;;;;;4996923;28;20666;-56
2021/07/12 05:22:42;;;;;;;20.57;15.40;;;18.40;99.90;;;;;;4989775;28;20228;-56
2021/07/12 05:25:09;;;;;;;18.43;16.23;;;18.50;99.90;;;;;;4996403;28;20287;-56
2021/07/12 05:27:36;;;;;;;17.00;15.17;;;18.50;99.90;;;;;;4994732;28;20284;-57
2021/07/12 05:30:06;;;;;;;17.67;15.83;;;18.50;99.90;;;;;;4995061;28;20234;-57
2021/07/12 05:32:33;;;;;;;25.00;16.13;;;18.50;99.90;;;;;;4992966;28;20740;-57
2021/07/12 05:35:00;;;;;;;21.97;16.93;;;18.60;99.90;;;;;;4995107;28;20234;-57
2021/07/12 05:37:27;;;;;;;19.60;16.13;;;18.70;99.90;;;;;;4992818;28;20313;-56
2021/07/12 05:39:54;;;;;;;21.50;16.27;;;18.70;99.90;;;;;;4992027;28;20284;-57
2021/07/12 05:42:23;;;;;;;20.20;16.77;;;18.70;99.90;;;;;;4992766;28;21806;-57
2021/07/12 05:44:50;;;;;;;18.90;16.70;;;18.70;99.90;;;;;;4992940;28;20197;-57
2021/07/12 05:47:17;;;;;;;21.40;18.27;;;18.70;99.90;;;;;;4989680;28;20430;-57
2021/07/12 05:49:44;;;;;;;23.30;16.47;;;18.80;99.90;;;;;;4989823;28;20211;-51
2021/07/12 05:52:11;;;;;;;20.13;15.77;;;18.90;99.90;;;;;;4991375;28;20298;-50
2021/07/12 05:54:38;;;;;;;23.27;17.33;;;18.90;99.90;;;;;;4985330;28;20738;-50
2021/07/12 05:57:05;;;;;;;20.80;17.33;;;19.10;99.90;;;;;;4990086;28;20214;-50
2021/07/12 05:59:32;;;;;;;21.73;17.23;;;19.10;99.90;;;;;;4996035;28;20264;-50
2021/07/12 06:01:59;;;;;;;19.53;17.43;;;19.20;99.90;;;;;;4984809;28;20722;-50
2021/07/12 06:04:26;;;;;;;20.70;17.67;;;19.20;99.90;;;;;;4992047;28;20216;-50
2021/07/12 06:06:52;;;;;;;19.83;16.40;;;19.10;99.90;;;;;;4993326;28;20254;-50
2021/07/12 06:09:19;;;;;;;18.93;16.30;;;19.10;99.90;;;;;;4992625;28;20626;-50
2021/07/12 06:11:46;;;;;;;21.00;16.83;;;19.20;99.90;;;;;;4991772;28;20295;-50
2021/07/12 06:14:13;;;;;;;22.87;17.33;;;19.10;99.90;;;;;;4992845;28;20763;-50
2021/07/12 06:16:40;;;;;;;21.53;16.77;;;19.20;99.90;;;;;;4991150;28;20300;-50
2021/07/12 06:19:12;;;;;;;20.00;16.57;;;19.20;99.90;;;;;;4991699;28;20684;-50
2021/07/12 06:21:39;;;;;;;19.37;16.67;;;19.30;99.90;;;;;;4991421;28;20237;-50
2021/07/12 06:24:05;;;;;;;20.47;17.40;;;19.40;99.90;;;;;;4992521;28;20303;-50
2021/07/12 06:26:32;;;;;;;22.80;17.67;;;19.60;99.90;;;;;;4988620;28;20593;-50
2021/07/12 06:28:59;;;;;;;20.57;17.83;;;19.60;99.90;;;;;;4991054;28;20304;-50
2021/07/12 06:31:26;;;;;;;20.17;17.67;;;19.70;99.90;;;;;;4984890;28;20648;-50
2021/07/12 06:33:54;;;;;;;21.00;18.20;;;19.70;99.90;;;;;;4991198;28;20691;-50
2021/07/12 06:36:20;;;;;;;19.67;17.57;;;19.70;99.90;;;;;;4991840;28;20336;-50
2021/07/12 06:38:47;;;;;;;20.50;17.90;;;19.80;99.90;;;;;;4991691;28;20252;-50
2021/07/12 06:41:14;;;;;;;19.53;17.37;;;19.90;99.90;;;;;;4991024;28;20307;-50
2021/07/12 06:43:41;;;;;;;20.07;16.97;;;20.00;99.90;;;;;;4994353;28;20284;-50
2021/07/12 06:46:08;;;;;;;20.40;16.57;;;20.30;99.90;;;;;;4992767;28;20201;-50
2021/07/12 06:48:35;;;;;;;18.13;16.17;;;20.30;99.90;;;;;;4989883;28;20297;-50
2021/07/12 06:51:02;;;;;;;21.30;17.93;;;20.50;99.90;;;;;;4993504;28;20206;-50
2021/07/12 06:53:33;;;;;;;17.83;14.97;;;20.70;99.90;;;;;;4990651;28;20224;-50
2021/07/12 06:56:01;;;;;;;22.50;17.43;;;20.80;49.70;;;;;;4988929;28;20289;-51
2021/07/12 06:58:28;;;;;;;18.53;16.00;;;20.90;32.00;;;;;;4990343;28;20728;-50
2021/07/12 07:00:55;;;;;;;21.00;16.63;;;21.10;1.00;;;;;;4990455;28;20399;-50
2021/07/12 07:03:22;;;;;;;17.67;15.77;;;21.40;1.00;;;;;;4988218;28;20296;-50
2021/07/12 07:05:49;;;;;;;19.23;14.83;;;21.50;1.00;;;;;;4991713;28;20318;-50
2021/07/12 07:08:16;;;;;;;17.53;14.70;;;21.60;1.00;;;;;;4988581;28;22679;-50
2021/07/12 07:10:43;;;;;;;16.37;14.50;;;21.80;1.00;;;;;;4989285;28;20806;-50
2021/07/12 07:13:10;;;;;;;17.73;13.93;;;22.00;1.00;;;;;;4991259;28;20747;-51
2021/07/12 07:15:37;;;;;;;14.73;12.60;;;22.00;1.00;;;;;;4987881;28;20306;-51
2021/07/12 07:18:04;;;;;;;12.40;10.77;;;21.90;1.00;;;;;;4986835;28;20290;-51
2021/07/12 07:20:31;;;;;;;14.23;11.77;;;22.10;1.00;;;;;;4985377;28;20613;-51
2021/07/12 07:22:58;;;;;;;11.87;10.63;;;22.50;1.00;;;;;;4989654;28;20298;-51
2021/07/12 07:25:25;;;;;;;12.77;9.67;;;22.60;99.90;;;;;;4985789;28;20189;-51
2021/07/12 07:27:51;;;;;;;10.83;9.73;;;22.80;1.00;;;;;;4990365;28;20272;-50
2021/07/12 07:30:19;;;;;;;10.10;8.93;;;22.80;99.90;;;;;;4988965;28;20893;-48
2021/07/12 07:32:45;;;;;;;8.80;7.90;;;22.90;73.70;;;;;;4990760;28;20317;-48
2021/07/12 07:35:13;;;;;;;7.10;6.27;;;23.40;20.10;;;;;;4988400;28;20239;-50
2021/07/12 07:37:40;;;;;;;8.13;6.40;;;24.10;1.00;;;;;;4987248;28;20273;-49
2021/07/12 07:40:08;;;;;;;6.50;5.83;;;24.30;1.00;;;;;;4991683;28;20453;-49
2021/07/12 07:42:36;;;;;;;7.47;5.87;;;25.20;1.00;;;;;;4989498;28;20316;-50
2021/07/12 07:45:05;;;;;;;6.80;6.10;;;25.20;1.00;;;;;;4997679;28;20232;-50
2021/07/12 07:47:32;;;;;;;6.03;5.03;;;25.00;1.00;;;;;;4993699;28;20299;-50
2021/07/12 07:50:18;;;;;;;5.70;5.10;;;25.00;61.10;;;;;;4997293;28;20210;-50
2021/07/12 07:52:45;;;;;;;7.37;6.20;;;25.20;1.00;;;;;;4995758;28;20525;-50
2021/07/12 07:55:13;;;;;;;6.43;5.60;;;24.70;1.00;;;;;;5000127;28;20318;-50
2021/07/12 07:57:40;;;;;;;5.23;4.73;;;25.00;99.90;;;;;;4987623;28;22048;-50
2021/07/12 08:00:13;;;;;;;5.53;4.93;;;25.10;1.00;;;;;;4995729;28;20739;-50
2021/07/12 08:02:40;;;;;;;4.83;4.33;;;25.00;99.90;;;;;;4994268;28;20275;-50
2021/07/12 08:05:08;;;;;;;5.60;4.83;;;26.10;1.00;;;;;;4992904;28;20512;-50
2021/07/12 08:07:36;;;;;;;5.33;4.60;;;25.40;99.90;;;;;;4995274;28;20229;-50
2021/07/12 08:10:07;;;;;;;5.37;4.17;;;25.50;1.00;;;;;;4997513;28;20339;-50
2021/07/12 08:12:34;;;;;;;4.93;4.37;;;26.40;99.90;;;;;;4996020;28;20304;-50
2021/07/12 08:15:02;;;;;;;4.37;3.57;;;27.00;1.00;;;;;;4995205;28;20300;-50
2021/07/12 08:17:29;;;;;;;4.03;3.60;;;27.20;99.90;;;;;;4996170;28;20672;-49
2021/07/12 08:19:56;;;;;;;4.93;4.27;;;27.30;99.90;;;;;;4995309;28;20294;-50
2021/07/12 08:22:45;;;;;;;6.93;5.13;;;27.50;1.00;;;;;;4995396;28;20566;-49
2021/07/12 08:25:12;;;;;;;6.60;4.40;;;27.60;1.00;;;;;;4995965;28;20291;-50
2021/07/12 08:27:39;;;;;;;4.77;4.27;;;27.90;1.00;;;;;;4992867;28;20775;-48
2021/07/12 08:30:11;;;;;;;5.03;4.33;;;27.90;1.00;;;;;;4995350;28;20304;-47
2021/07/12 08:32:38;;;;;;;4.90;4.00;;;27.80;1.00;;;;;;4995916;28;20324;-49
2021/07/12 08:35:06;;;;;;;5.00;4.50;;;27.70;1.00;;;;;;4997497;28;20316;-48
2021/07/12 08:37:33;;;;;;;4.63;3.53;;;28.10;1.00;;;;;;4991532;28;20336;-50
2021/07/12 08:40:00;;;;;;;3.13;2.87;;;27.80;1.00;;;;;;4994946;28;20255;-47
2021/07/12 08:42:27;;;;;;;3.13;2.83;;;28.20;1.00;;;;;;4993559;28;20205;-48
2021/07/12 08:44:54;;;;;;;3.67;3.37;;;28.30;1.00;;;;;;4993881;28;20397;-49
2021/07/12 08:47:21;;;;;;;5.23;3.57;;;28.50;99.90;;;;;;4992676;28;20190;-48
2021/07/12 08:49:48;;;;;;;4.03;3.20;;;28.30;99.90;;;;;;4991360;28;20215;-48
2021/07/12 08:52:16;;;;;;;3.10;2.80;;;27.90;1.00;;;;;;4994863;28;20236;-48
2021/07/12 08:54:43;;;;;;;2.97;2.50;;;28.30;99.90;;;;;;4989681;28;20275;-48
2021/07/12 08:57:10;;;;;;;2.47;2.28;;;28.80;99.90;;;;;;4986035;28;20216;-48
2021/07/12 08:59:42;;;;;;;2.60;2.40;;;28.50;99.90;;;;;;4993502;28;20295;-49
2021/07/12 09:02:14;;;;;;;2.08;1.83;;;29.20;1.00;;;;;;4991952;28;20253;-48
2021/07/12 09:04:45;;;;;;;2.83;2.35;;;30.10;1.00;;;;;;4997039;28;20401;-48
2021/07/12 09:07:14;;;;;;;2.40;1.70;;;29.70;99.90;;;;;;4994512;28;20289;-48
2021/07/12 09:09:59;;;;;;;1.95;1.70;;;29.50;1.00;;;;;;4998096;28;20317;-49
2021/07/12 09:12:37;;;;;;;2.53;2.33;;;29.20;1.00;;;;;;4994357;28;20633;-49
2021/07/12 09:15:06;;;;;;;2.90;2.40;;;28.40;1.00;;;;;;4995889;28;20577;-56
2021/07/12 09:17:35;;;;;;;2.70;2.50;;;29.10;1.00;;;;;;4993861;28;20222;-55
2021/07/12 09:20:06;;;;;;;2.97;2.53;;;28.30;1.00;;;;;;4994817;28;20316;-55
2021/07/12 09:22:35;;;;;;;2.60;2.33;;;28.70;95.60;;;;;;4996682;28;20359;-55
2021/07/12 09:25:10;;;;;;;2.25;2.00;;;28.50;1.00;;;;;;4993999;28;20812;-49
2021/07/12 09:27:39;;;;;;;1.80;1.70;;;28.50;1.00;;;;;;4997032;28;20706;-49
2021/07/12 09:30:12;;;;;;;3.83;1.77;;;28.60;1.00;;;;;;4995734;28;20741;-49
2021/07/12 09:32:42;;;;;;;1.50;1.40;;;29.50;1.00;;;;;;4992444;28;20373;-54
2021/07/12 09:35:12;;;;;;;2.55;1.58;;;29.70;1.00;;;;;;4994539;28;20257;-49
2021/07/12 09:37:41;;;;;;;1.37;1.23;;;29.80;1.00;;;;;;4993743;28;20205;-49
2021/07/12 09:40:12;;;;;;;1.50;1.40;;;30.40;99.90;;;;;;4990967;28;20247;-49
2021/07/12 09:42:40;;;;;;;1.80;1.20;;;29.50;1.00;;;;;;4995062;28;20248;-49
2021/07/12 09:45:09;;;;;;;2.60;1.83;;;30.10;99.90;;;;;;4999824;28;20205;-49
2021/07/12 09:47:39;;;;;;;2.63;1.90;;;29.60;99.90;;;;;;4995422;28;20248;-49
2021/07/12 09:50:19;;;;;;;2.00;1.80;;;29.80;99.90;;;;;;4993567;28;20313;-49
2021/07/12 09:52:52;;;;;;;1.58;1.48;;;29.50;1.00;;;;;;4998615;28;20209;-48
2021/07/12 09:55:25;;;;;;;1.63;1.52;;;28.10;1.00;;;;;;4997348;28;20312;-48
2021/07/12 09:58:15;;;;;;;1.42;1.27;;;28.60;1.00;;;;;;4993258;28;20229;-49
2021/07/12 10:00:48;;;;;;;1.88;1.67;;;28.70;1.00;;;;;;4996643;28;20241;-48
2021/07/12 10:03:16;;;;;;;2.38;1.33;;;28.20;1.00;;;;;;4994929;28;20640;-48
2021/07/12 10:05:47;;;;;;;1.50;1.40;;;27.90;1.00;;;;;;4996890;28;20744;-49
2021/07/12 10:08:14;;;;;;;1.50;1.40;;;28.40;1.00;;;;;;4995079;28;20288;-49
2021/07/12 10:10:41;;;;;;;1.35;1.25;;;28.40;1.00;;;;;;4992118;28;20741;-49
2021/07/12 10:13:08;;;;;;;1.77;1.60;;;28.70;1.00;;;;;;4995158;28;20229;-49
2021/07/12 10:15:35;;;;;;;3.15;1.50;;;28.50;1.00;;;;;;4996383;28;20201;-49
2021/07/12 10:18:04;;;;;;;1.73;1.48;;;28.30;1.00;;;;;;4996174;28;20213;-49
2021/07/12 10:20:33;;;;;;;1.40;1.30;;;28.40;1.00;;;;;;4993516;28;20255;-49
2021/07/12 10:23:02;;;;;;;2.17;1.70;;;28.40;1.00;;;;;;4992885;28;21970;-49
2021/07/12 10:25:30;;;;;;;1.75;1.63;;;28.30;1.00;;;;;;4995576;28;20641;-49
2021/07/12 10:28:04;;;;;;;1.90;1.42;;;27.80;1.00;;;;;;4997806;28;20201;-49
2021/07/12 10:30:36;;;;;;;1.55;1.45;;;28.60;1.00;;;;;;4995424;28;20586;-48
2021/07/12 10:33:05;;;;;;;1.63;1.45;;;28.40;1.00;;;;;;4995252;28;20209;-49
2021/07/12 10:35:47;;;;;;;1.40;1.30;;;28.70;1.00;;;;;;4995986;28;20293;-49
2021/07/12 10:38:17;;;;;;;2.30;1.80;;;28.50;1.00;;;;;;4993658;28;20650;-48
2021/07/12 10:40:43;;;;;;;2.95;1.88;;;27.80;1.00;;;;;;4997108;28;20320;-48
2021/07/12 10:43:10;;;;;;;2.35;1.85;;;27.90;1.00;;;;;;4994371;28;20276;-49
2021/07/12 10:45:39;;;;;;;4.07;2.05;;;28.20;21.60;;;;;;4994887;28;20644;-48
2021/07/12 10:48:15;;;;;;;3.17;2.35;;;28.00;1.00;;;;;;4995174;28;20209;-48
2021/07/12 10:50:47;;;;;;;3.05;2.33;;;27.60;1.00;;;;;;4998022;28;20319;-48
2021/07/12 10:53:14;;;;;;;3.30;2.42;;;27.70;1.00;;;;;;4995154;28;20232;-49
2021/07/12 10:55:44;;;;;;;3.07;2.77;;;27.20;91.80;;;;;;4995445;28;20210;-48
2021/07/12 10:58:29;;;;;;;3.33;2.60;;;27.50;1.00;;;;;;4995822;28;20233;-49
2021/07/12 11:01:02;;;;;;;3.38;2.33;;;27.50;99.90;;;;;;4993644;28;20943;-49
2021/07/12 11:03:38;;;;;;;3.20;2.90;;;27.20;1.00;;;;;;4995938;28;20229;-49
2021/07/12 11:06:09;;;;;;;2.47;2.17;;;26.50;99.90;;;;;;4996223;28;20292;-49
2021/07/12 11:08:55;;;;;;;2.23;1.93;;;26.70;1.00;;;;;;4995759;28;20277;-49
2021/07/12 11:11:22;;;;;;;3.23;2.93;;;26.80;99.90;;;;;;4995020;28;20260;-50
2021/07/12 11:13:50;;;;;;;2.93;2.50;;;27.00;11.70;;;;;;4994613;28;20837;-48
2021/07/12 11:16:19;;;;;;;2.33;2.13;;;26.90;99.90;;;;;;4996320;28;20296;-49
2021/07/12 11:18:47;;;;;;;4.00;2.47;;;27.20;1.00;;;;;;4994807;28;20213;-49
2021/07/12 11:21:15;;;;;;;2.33;1.90;;;26.80;99.90;;;;;;4998301;28;20758;-49
2021/07/12 11:23:51;;;;;;;2.80;2.20;;;26.90;99.90;;;;;;4997219;28;20225;-49
2021/07/12 11:26:21;;;;;;;2.70;2.30;;;26.60;99.90;;;;;;4999026;28;20286;-49
2021/07/12 11:28:57;;;;;;;2.73;2.33;;;26.60;99.90;;;;;;4999682;28;20201;-49
2021/07/12 11:31:43;;;;;;;3.87;2.80;;;26.60;99.90;;;;;;4994365;28;20314;-49
2021/07/12 11:34:14;;;;;;;3.03;2.67;;;26.60;99.90;;;;;;4998400;28;20202;-51
2021/07/12 11:36:55;;;;;;;2.57;2.17;;;26.40;1.00;;;;;;4996317;28;20228;-49
2021/07/12 11:39:42;;;;;;;2.37;2.10;;;26.20;17.90;;;;;;4998917;28;20748;-48
2021/07/12 11:42:30;;;;;;;3.77;2.73;;;26.10;1.00;;;;;;4998033;28;20547;-49
2021/07/12 11:45:07;;;;;;;3.10;2.80;;;26.00;1.00;;;;;;4998534;28;20289;-51
2021/07/12 11:47:40;;;;;;;2.80;2.60;;;25.70;1.00;;;;;;4997391;28;20193;-51
2021/07/12 11:50:11;;;;;;;4.10;3.40;;;25.70;99.90;;;;;;4998048;28;20564;-50
2021/07/12 11:52:46;;;;;;;3.80;3.50;;;25.80;1.00;;;;;;4996982;28;20291;-48
2021/07/12 11:55:23;;;;;;;3.50;3.00;;;25.50;1.00;;;;;;4996189;28;20214;-48
2021/07/12 11:57:52;;;;;;;3.17;2.87;;;25.70;44.60;;;;;;4996309;28;20866;-48
2021/07/12 12:00:30;;;;;;;4.13;3.47;;;25.70;1.00;;;;;;4997556;28;20272;-48
2021/07/12 12:03:11;;;;;;;3.70;3.10;;;25.90;99.90;;;;;;4997471;28;20280;-49
2021/07/12 12:05:40;;;;;;;4.30;3.60;;;25.80;99.90;;;;;;4998290;28;20599;-49
2021/07/12 12:08:08;;;;;;;5.87;4.73;;;25.90;99.90;;;;;;4997767;28;20236;-49
2021/07/12 12:10:40;;;;;;;5.03;4.57;;;25.60;99.90;;;;;;4994261;28;20298;-49
2021/07/12 12:13:15;;;;;;;5.87;5.27;;;25.70;1.00;;;;;;4996245;28;20214;-49
2021/07/12 12:15:44;;;;;;;5.70;5.20;;;25.50;99.90;;;;;;4996381;28;20211;-50
2021/07/12 12:18:17;;;;;;;5.33;4.83;;;25.40;99.90;;;;;;4998611;28;20251;-51
2021/07/12 12:20:46;;;;;;;6.73;6.10;;;25.50;99.90;;;;;;4996772;28;20274;-48
2021/07/12 12:23:20;;;;;;;5.83;5.20;;;25.40;1.00;;;;;;4997447;28;20205;-49
2021/07/12 12:26:06;;;;;;;5.63;5.13;;;25.40;99.90;;;;;;4994858;28;20193;-49
2021/07/12 12:28:34;;;;;;;5.07;4.67;;;25.40;99.90;;;;;;5000535;28;20272;-49
2021/07/12 12:31:10;;;;;;;5.73;5.27;;;25.40;89.30;;;;;;4996526;28;20311;-49
2021/07/12 12:33:44;;;;;;;5.60;4.63;;;25.30;1.00;;;;;;5000073;28;20209;-49
2021/07/12 12:36:13;;;;;;;5.00;4.53;;;25.30;99.90;;;;;;4997683;28;20240;-49
2021/07/12 12:38:53;;;;;;;6.70;4.70;;;25.40;99.90;;;;;;4998921;28;20211;-49
2021/07/12 12:41:23;;;;;;;6.07;5.03;;;25.40;51.60;;;;;;4997683;28;20242;-49
2021/07/12 12:44:10;;;;;;;4.90;4.40;;;25.20;1.00;;;;;;4999368;28;20658;-49
2021/07/12 12:46:40;;;;;;;4.83;4.17;;;25.20;1.00;;;;;;4997919;28;20215;-49
2021/07/12 12:49:26;;;;;;;3.90;3.50;;;25.20;1.00;;;;;;4999753;28;20225;-49
2021/07/12 12:51:58;;;;;;;4.37;3.97;;;25.40;1.00;;;;;;4999387;28;20656;-49
2021/07/12 12:54:31;;;;;;;4.53;4.13;;;25.30;1.00;;;;;;4996709;28;20243;-49
2021/07/12 12:57:00;;;;;;;4.40;4.00;;;25.30;1.00;;;;;;4994345;28;20636;-49
2021/07/12 12:59:32;;;;;;;5.13;3.70;;;25.30;99.90;;;;;;4995847;28;20611;-49